createdAt,value
2023-05-10T00:01:44.723Z,0.32
2023-05-10T00:04:11.436Z,0.40
2023-05-10T00:06:38.058Z,0.52
2023-05-10T00:09:04.867Z,0.40
2023-05-10T00:11:31.652Z,0.30
2023-05-10T00:13:58.278Z,0.45
2023-05-10T00:16:24.931Z,0.60
2023-05-10T00:18:51.601Z,0.47
2023-05-10T00:21:18.211Z,0.50
2023-05-10T00:23:47.900Z,0.50
2023-05-10T00:26:14.638Z,0.40
2023-05-10T00:28:41.185Z,0.35
2023-05-10T00:31:07.717Z,0.40
2023-05-10T00:33:34.290Z,0.30
2023-05-10T00:36:00.996Z,0.20
2023-05-10T00:38:27.622Z,0.22
2023-05-10T00:40:54.182Z,0.30
2023-05-10T00:43:20.763Z,0.30
2023-05-10T00:45:47.840Z,0.30
2023-05-10T00:48:14.596Z,0.47
2023-05-10T00:50:41.614Z,0.30
2023-05-10T00:53:08.854Z,0.40
2023-05-10T00:55:35.607Z,0.50
2023-05-10T00:58:02.595Z,0.40
2023-05-10T01:00:30.630Z,0.40
2023-05-10T01:02:57.446Z,0.30
2023-05-10T01:05:24.223Z,0.38
2023-05-10T01:07:50.874Z,0.30
2023-05-10T01:10:17.885Z,0.13
2023-05-10T01:12:46.619Z,0.20
2023-05-10T01:15:13.875Z,0.20
2023-05-10T01:17:41.777Z,0.20
2023-05-10T01:20:09.344Z,0.20
2023-05-10T01:22:54.002Z,0.20
2023-05-10T01:25:35.485Z,0.22
2023-05-10T01:31:05.576Z,0.10
2023-05-10T01:33:48.715Z,0.20
2023-05-10T01:36:32.453Z,0.30
2023-05-10T01:39:11.737Z,0.10
2023-05-10T01:41:45.958Z,0.55
2023-05-10T01:44:19.810Z,0.20
2023-05-10T01:46:51.008Z,0.50
2023-05-10T01:49:28.765Z,0.47
2023-05-10T01:52:03.148Z,0.40
2023-05-10T01:54:30.355Z,0.70
2023-05-10T01:57:00.527Z,0.50
2023-05-10T01:59:31.240Z,0.50
2023-05-10T02:02:00.073Z,0.70
2023-05-10T02:04:27.964Z,0.77
2023-05-10T02:06:55.350Z,0.55
2023-05-10T02:09:22.397Z,0.80
2023-05-10T02:11:49.776Z,1.00
2023-05-10T02:14:16.878Z,1.00
2023-05-10T02:16:44.343Z,0.65
2023-05-10T02:19:11.377Z,0.60
2023-05-10T02:21:39.234Z,0.80
2023-05-10T02:24:06.450Z,0.80
2023-05-10T02:26:34.034Z,0.90
2023-05-10T02:29:04.342Z,1.10
2023-05-10T02:31:33.322Z,0.70
2023-05-10T02:34:01.319Z,1.00
2023-05-10T02:36:31.235Z,0.50
2023-05-10T02:38:58.242Z,0.60
2023-05-10T02:41:25.791Z,1.13
2023-05-10T02:43:57.224Z,1.05
2023-05-10T02:46:24.521Z,0.82
2023-05-10T02:48:51.239Z,0.60
2023-05-10T02:51:20.068Z,1.00
2023-05-10T02:53:47.816Z,0.50
2023-05-10T02:56:36.121Z,0.63
2023-05-10T02:59:02.859Z,0.50
2023-05-10T03:01:30.502Z,0.88
2023-05-10T03:03:57.335Z,0.50
2023-05-10T03:06:23.973Z,1.00
2023-05-10T03:08:50.592Z,0.95
2023-05-10T03:11:29.986Z,0.52
2023-05-10T03:14:18.482Z,0.88
2023-05-10T03:16:53.869Z,1.17
2023-05-10T03:19:55.673Z,0.85
2023-05-10T03:22:39.368Z,1.15
2023-05-10T03:25:07.984Z,1.13
2023-05-10T03:27:35.716Z,1.17
2023-05-10T03:30:03.627Z,1.50
2023-05-10T03:32:31.324Z,1.35
2023-05-10T03:34:57.958Z,1.20
2023-05-10T03:44:58.194Z,1.80
2023-05-10T03:47:24.851Z,1.75
2023-05-10T03:49:51.591Z,2.30
2023-05-10T03:52:18.183Z,1.90
2023-05-10T03:54:44.850Z,2.22
2023-05-10T03:57:11.518Z,2.10
2023-05-10T03:59:38.184Z,2.25
2023-05-10T04:02:04.834Z,3.40
2023-05-10T04:04:31.722Z,2.17
2023-05-10T04:06:58.454Z,2.63
2023-05-10T04:09:25.151Z,2.67
2023-05-10T04:11:52.219Z,2.78
2023-05-10T04:14:18.814Z,3.70
2023-05-10T04:16:45.867Z,3.75
2023-05-10T04:19:12.757Z,3.97
2023-05-10T04:21:39.309Z,5.00
2023-05-10T04:24:06.154Z,5.28
2023-05-10T04:26:32.763Z,6.10
2023-05-10T04:28:59.340Z,5.47
2023-05-10T04:31:26.021Z,6.30
2023-05-10T04:33:52.656Z,5.35
2023-05-10T04:36:19.317Z,5.75
2023-05-10T04:38:45.898Z,6.07
2023-05-10T04:41:12.700Z,6.50
2023-05-10T04:43:39.793Z,6.32
2023-05-10T04:46:06.909Z,5.50
2023-05-10T04:48:33.622Z,5.80
2023-05-10T04:51:00.293Z,5.40
2023-05-10T04:53:26.981Z,6.40
2023-05-10T04:55:53.632Z,5.72
2023-05-10T04:58:20.205Z,5.28
2023-05-10T05:00:46.869Z,4.85
2023-05-10T05:03:13.519Z,5.65
2023-05-10T05:05:40.169Z,6.18
2023-05-10T05:08:06.898Z,5.72
2023-05-10T05:10:33.545Z,6.15
2023-05-10T05:13:00.274Z,6.20
2023-05-10T05:15:27.091Z,6.60
2023-05-10T05:17:53.739Z,7.82
2023-05-10T05:20:20.365Z,6.97
2023-05-10T05:22:46.970Z,7.10
2023-05-10T05:25:13.850Z,6.85
2023-05-10T05:27:40.471Z,7.70
2023-05-10T05:30:07.734Z,6.63
2023-05-10T05:32:34.308Z,6.88
2023-05-10T05:35:01.041Z,7.05
2023-05-10T05:37:27.618Z,7.00
2023-05-10T05:39:55.979Z,6.20
2023-05-10T05:42:22.600Z,5.95
2023-05-10T05:44:49.289Z,6.47
2023-05-10T05:47:15.988Z,6.45
2023-05-10T05:49:42.624Z,6.05
2023-05-10T05:52:09.264Z,5.85
2023-05-10T05:54:36.009Z,5.82
2023-05-10T05:57:02.715Z,5.90
2023-05-10T05:59:29.397Z,5.78
2023-05-10T06:01:56.147Z,6.45
2023-05-10T06:04:22.937Z,6.55
2023-05-10T06:06:49.693Z,6.65
2023-05-10T06:09:16.896Z,6.43
2023-05-10T06:11:43.963Z,7.07
2023-05-10T06:14:11.610Z,7.35
2023-05-10T06:16:38.304Z,6.55
2023-05-10T06:19:05.167Z,6.53
2023-05-10T06:21:31.828Z,8.48
2023-05-10T06:23:58.489Z,7.60
2023-05-10T06:26:25.186Z,8.82
2023-05-10T06:28:51.855Z,8.00
2023-05-10T06:31:18.868Z,7.47
2023-05-10T06:33:45.774Z,9.07
2023-05-10T06:36:12.425Z,8.15
2023-05-10T06:38:39.140Z,7.50
2023-05-10T06:41:05.786Z,8.00
2023-05-10T06:43:32.706Z,8.00
2023-05-10T06:45:59.483Z,7.68
2023-05-10T06:48:26.213Z,7.18
2023-05-10T06:50:52.965Z,8.80
2023-05-10T06:53:19.668Z,8.00
2023-05-10T06:55:46.600Z,7.07
2023-05-10T06:58:29.063Z,7.50
2023-05-10T07:00:55.698Z,6.82
2023-05-10T07:03:22.334Z,7.57
2023-05-10T07:05:49.112Z,7.50
2023-05-10T07:08:15.864Z,6.70
2023-05-10T07:10:42.503Z,6.55
2023-05-10T07:13:09.223Z,6.40
2023-05-10T07:15:35.993Z,6.13
2023-05-10T07:18:02.788Z,6.18
2023-05-10T07:20:29.515Z,5.97
2023-05-10T07:22:56.176Z,6.03
2023-05-10T07:25:22.856Z,6.43
2023-05-10T07:27:49.721Z,6.85
2023-05-10T07:30:16.455Z,7.63
2023-05-10T07:32:43.352Z,7.53
2023-05-10T07:35:10.011Z,7.82
2023-05-10T07:37:37.064Z,8.30
2023-05-10T07:40:03.803Z,9.32
2023-05-10T07:42:30.493Z,8.73
2023-05-10T07:44:57.201Z,9.48
2023-05-10T07:47:24.537Z,9.15
2023-05-10T07:49:51.343Z,8.73
2023-05-10T07:52:18.070Z,9.27
2023-05-10T07:54:45.637Z,10.30
2023-05-10T07:57:12.300Z,11.05
2023-05-10T07:59:38.922Z,10.93
2023-05-10T08:02:05.638Z,11.18
2023-05-10T08:04:32.295Z,11.02
2023-05-10T08:06:58.882Z,10.57
2023-05-10T08:09:25.665Z,9.75
2023-05-10T08:12:01.991Z,8.55
2023-05-10T08:14:31.624Z,8.10
2023-05-10T08:16:58.256Z,8.07
2023-05-10T08:19:25.116Z,8.10
2023-05-10T08:21:52.081Z,8.27
2023-05-10T08:24:18.759Z,8.50
2023-05-10T08:26:45.409Z,6.22
2023-05-10T08:29:12.089Z,7.38
2023-05-10T08:31:38.742Z,7.70
2023-05-10T08:34:05.474Z,7.90
2023-05-10T08:36:33.163Z,7.53
2023-05-10T08:38:59.893Z,6.57
2023-05-10T08:41:29.435Z,6.43
2023-05-10T08:43:56.437Z,6.53
2023-05-10T08:46:24.513Z,6.70
2023-05-10T08:48:52.815Z,5.53
2023-05-10T08:51:22.300Z,5.50
2023-05-10T08:53:49.252Z,5.72
2023-05-10T08:56:17.014Z,5.82
2023-05-10T08:58:44.043Z,6.00
2023-05-10T09:01:11.109Z,6.00
2023-05-10T09:03:40.346Z,5.78
2023-05-10T09:06:08.130Z,6.07
2023-05-10T09:08:34.953Z,5.40
2023-05-10T09:11:02.586Z,5.97
2023-05-10T09:13:29.941Z,5.18
2023-05-10T09:15:58.786Z,5.53
2023-05-10T09:18:28.892Z,5.15
2023-05-10T09:20:55.917Z,6.72
2023-05-10T09:23:22.673Z,5.60
2023-05-10T09:25:49.752Z,5.10
2023-05-10T09:28:16.616Z,5.60
2023-05-10T09:30:44.057Z,5.53
2023-05-10T09:33:11.161Z,5.20
2023-05-10T09:35:40.667Z,5.22
2023-05-10T09:38:07.738Z,5.05
2023-05-10T09:40:34.753Z,5.45
2023-05-10T09:43:10.192Z,5.00
2023-05-10T09:45:38.843Z,4.65
2023-05-10T09:48:06.918Z,5.03
2023-05-10T09:50:35.506Z,5.30
2023-05-10T09:53:06.951Z,5.15
2023-05-10T09:55:49.319Z,5.93
2023-05-10T09:58:17.106Z,4.10
2023-05-10T10:00:46.131Z,4.40
2023-05-10T10:03:26.541Z,5.45
2023-05-10T10:05:57.425Z,4.60
2023-05-10T10:08:25.716Z,3.35
2023-05-10T10:10:53.161Z,3.38
2023-05-10T10:13:28.050Z,3.00
2023-05-10T10:15:59.941Z,2.72
2023-05-10T10:18:28.541Z,2.25
2023-05-10T10:20:59.019Z,2.20
2023-05-10T10:23:28.932Z,2.92
2023-05-10T10:26:00.782Z,2.75
2023-05-10T10:28:53.044Z,2.40
2023-05-10T10:31:29.210Z,2.50
2023-05-10T10:34:08.286Z,3.08
2023-05-10T10:36:50.013Z,2.45
2023-05-10T10:39:17.309Z,3.05
2023-05-10T10:41:55.626Z,2.85
2023-05-10T10:44:31.970Z,2.28
2023-05-10T10:47:10.373Z,2.63
2023-05-10T10:49:45.034Z,2.90
2023-05-10T10:52:31.195Z,2.83
2023-05-10T10:55:26.150Z,3.25
2023-05-10T10:58:01.989Z,3.08
2023-05-10T11:00:29.908Z,3.42
2023-05-10T11:03:24.575Z,3.10
2023-05-10T11:05:54.127Z,2.53
2023-05-10T11:08:28.922Z,3.20
2023-05-10T11:11:29.191Z,2.60
2023-05-10T11:14:07.949Z,2.40
2023-05-10T11:16:44.937Z,3.20
2023-05-10T11:19:13.287Z,3.90
2023-05-10T11:21:52.982Z,2.22
2023-05-10T11:24:21.505Z,1.30
2023-05-10T11:26:51.264Z,0.80
2023-05-10T11:29:18.044Z,0.90
2023-05-10T11:31:46.455Z,1.20
2023-05-10T11:34:17.768Z,1.23
2023-05-10T11:36:44.453Z,1.50
2023-05-10T11:39:12.556Z,2.42
2023-05-10T11:41:42.333Z,4.18
2023-05-10T11:44:10.293Z,5.43
2023-05-10T11:46:37.896Z,6.85
2023-05-10T11:49:08.022Z,6.38
2023-05-10T11:51:36.897Z,6.40
2023-05-10T11:54:07.658Z,5.72
2023-05-10T11:56:34.482Z,5.15
2023-05-10T11:59:02.938Z,6.15
2023-05-10T12:01:29.842Z,6.68
2023-05-10T12:04:01.549Z,6.78
2023-05-10T12:06:30.482Z,6.80
2023-05-10T12:08:57.187Z,8.15
2023-05-10T12:11:28.398Z,8.30
2023-05-10T12:13:55.813Z,8.32
2023-05-10T12:16:28.011Z,8.35
2023-05-10T12:18:58.888Z,8.52
2023-05-10T12:21:26.308Z,9.63
2023-05-10T12:24:01.270Z,8.73
2023-05-10T12:26:29.248Z,7.70
2023-05-10T12:28:56.421Z,7.60
2023-05-10T12:31:23.145Z,7.00
2023-05-10T12:33:50.463Z,8.00
2023-05-10T12:36:17.773Z,7.57
2023-05-10T12:38:51.084Z,7.53
2023-05-10T12:41:18.970Z,7.38
2023-05-10T12:43:49.285Z,7.70
2023-05-10T12:46:18.266Z,7.20
2023-05-10T12:48:45.601Z,7.07
2023-05-10T12:51:20.738Z,7.45
2023-05-10T12:53:49.709Z,7.57
2023-05-10T12:56:16.518Z,7.80
2023-05-10T12:58:43.184Z,7.93
2023-05-10T13:01:09.953Z,8.50
2023-05-10T13:03:36.689Z,8.55
2023-05-10T13:06:03.307Z,8.70
2023-05-10T13:08:34.545Z,9.57
2023-05-10T13:11:02.154Z,8.40
2023-05-10T13:13:28.845Z,7.88
2023-05-10T13:15:55.675Z,7.85
2023-05-10T13:18:22.522Z,8.95
2023-05-10T13:20:50.671Z,7.75
2023-05-10T13:23:17.400Z,8.82
2023-05-10T13:25:44.037Z,7.80
2023-05-10T13:28:10.776Z,7.32
2023-05-10T13:30:37.526Z,6.88
2023-05-10T13:33:04.361Z,6.82
2023-05-10T13:35:31.245Z,6.38
2023-05-10T13:37:58.703Z,6.03
2023-05-10T13:40:25.368Z,6.53
2023-05-10T13:42:52.062Z,6.07
2023-05-10T13:45:18.956Z,6.82
2023-05-10T13:47:45.909Z,6.65
2023-05-10T13:50:12.604Z,6.78
2023-05-10T13:52:39.252Z,6.63
2023-05-10T13:55:06.202Z,6.20
2023-05-10T13:57:32.906Z,6.95
2023-05-10T13:59:59.578Z,6.63
2023-05-10T14:02:26.861Z,5.85
2023-05-10T14:04:53.603Z,7.10
2023-05-10T14:07:20.311Z,7.53
2023-05-10T14:09:47.073Z,7.95
2023-05-10T14:12:15.587Z,7.38
2023-05-10T14:14:42.454Z,7.53
2023-05-10T14:17:11.434Z,7.32
2023-05-10T14:19:40.085Z,6.60
2023-05-10T14:22:07.123Z,8.13
2023-05-10T14:24:33.717Z,7.05
2023-05-10T14:27:00.441Z,6.93
2023-05-10T14:29:27.170Z,7.18
2023-05-10T14:31:53.867Z,7.18
2023-05-10T14:34:20.968Z,7.00
2023-05-10T14:36:47.593Z,6.93
2023-05-10T14:39:14.409Z,6.97
2023-05-10T14:41:43.988Z,7.00
2023-05-10T14:44:11.537Z,7.05
2023-05-10T14:46:38.373Z,7.00
2023-05-10T14:49:05.287Z,5.82
2023-05-10T14:51:32.915Z,6.40
2023-05-10T14:53:59.990Z,6.35
2023-05-10T14:56:27.174Z,5.65
2023-05-10T14:58:53.859Z,5.40
2023-05-10T15:01:21.105Z,5.13
2023-05-10T15:03:48.453Z,5.50
2023-05-10T15:06:17.016Z,5.95
2023-05-10T15:08:43.715Z,5.30
2023-05-10T15:11:10.550Z,5.28
2023-05-10T15:13:37.124Z,5.25
2023-05-10T15:16:03.785Z,5.35
2023-05-10T15:18:30.525Z,4.40
2023-05-10T15:20:57.176Z,4.82
2023-05-10T15:23:23.968Z,5.43
2023-05-10T15:25:53.275Z,5.25
2023-05-10T15:28:19.895Z,5.07
2023-05-10T15:30:46.459Z,5.32
2023-05-10T15:33:13.053Z,5.25
2023-05-10T15:35:40.564Z,5.22
2023-05-10T15:38:07.219Z,6.20
2023-05-10T15:40:33.913Z,6.65
2023-05-10T15:43:00.534Z,4.85
2023-05-10T15:45:27.584Z,5.78
2023-05-10T15:47:54.322Z,5.10
2023-05-10T15:50:20.941Z,4.80
2023-05-10T15:52:47.591Z,6.20
2023-05-10T15:55:14.610Z,6.13
2023-05-10T15:57:42.530Z,6.97
2023-05-10T16:00:11.735Z,5.80
2023-05-10T16:02:39.156Z,6.53
2023-05-10T16:05:06.229Z,6.82
2023-05-10T16:07:32.823Z,6.25
2023-05-10T16:09:59.464Z,7.45
2023-05-10T16:12:26.314Z,7.93
2023-05-10T16:14:53.052Z,7.95
2023-05-10T16:17:20.453Z,7.70
2023-05-10T16:19:47.607Z,7.97
2023-05-10T16:22:15.043Z,7.57
2023-05-10T16:24:42.465Z,9.20
2023-05-10T16:27:09.148Z,7.80
2023-05-10T16:29:35.888Z,7.50
2023-05-10T16:32:02.572Z,8.63
2023-05-10T16:34:29.148Z,7.45
2023-05-10T16:36:55.785Z,8.10
2023-05-10T16:39:22.363Z,8.73
2023-05-10T16:41:49.013Z,7.22
2023-05-10T16:44:15.655Z,6.53
2023-05-10T16:46:42.439Z,7.78
2023-05-10T16:49:09.284Z,7.40
2023-05-10T16:51:35.982Z,8.20
2023-05-10T16:54:02.637Z,8.13
2023-05-10T16:56:29.495Z,7.80
2023-05-10T16:58:56.177Z,6.97
2023-05-10T17:01:24.951Z,7.97
2023-05-10T17:03:53.128Z,7.22
2023-05-10T17:06:19.880Z,8.18
2023-05-10T17:08:46.919Z,7.20
2023-05-10T17:11:13.914Z,6.80
2023-05-10T17:13:40.620Z,7.88
2023-05-10T17:16:08.396Z,8.15
2023-05-10T17:18:35.216Z,8.30
2023-05-10T17:21:01.906Z,8.25
2023-05-10T17:23:28.669Z,7.95
2023-05-10T17:25:55.447Z,8.00
2023-05-10T17:28:22.137Z,8.20
2023-05-10T17:30:56.212Z,8.07
2023-05-10T17:33:22.820Z,7.15
2023-05-10T17:35:49.752Z,7.30
2023-05-10T17:38:16.411Z,7.30
2023-05-10T17:40:43.130Z,7.63
2023-05-10T17:43:09.754Z,7.13
2023-05-10T17:45:36.489Z,6.88
2023-05-10T17:48:04.242Z,7.03
2023-05-10T17:50:32.734Z,6.47
2023-05-10T17:52:59.369Z,5.93
2023-05-10T17:55:27.165Z,6.40
2023-05-10T17:57:53.953Z,6.15
2023-05-10T18:00:20.818Z,6.70
2023-05-10T18:02:47.464Z,6.78
2023-05-10T18:05:14.429Z,7.00
2023-05-10T18:07:41.156Z,5.40
2023-05-10T18:10:08.196Z,6.32
2023-05-10T18:12:34.957Z,5.93
2023-05-10T18:15:01.645Z,6.28
2023-05-10T18:17:28.328Z,6.97
2023-05-10T18:19:55.201Z,7.15
2023-05-10T18:22:21.816Z,7.95
2023-05-10T18:24:48.429Z,6.78
2023-05-10T18:27:15.046Z,8.05
2023-05-10T18:29:42.389Z,6.90
2023-05-10T18:32:09.046Z,6.32
2023-05-10T18:34:35.923Z,6.18
2023-05-10T18:37:07.557Z,5.70
2023-05-10T18:39:34.670Z,6.32
2023-05-10T18:42:01.463Z,4.60
2023-05-10T18:44:29.088Z,5.15
2023-05-10T18:46:55.964Z,4.95
2023-05-10T18:49:22.860Z,4.57
2023-05-10T18:51:49.458Z,4.88
2023-05-10T18:54:16.273Z,5.28
2023-05-10T18:56:45.266Z,5.75
2023-05-10T18:59:12.527Z,5.28
2023-05-10T19:01:40.888Z,6.40
2023-05-10T19:04:08.916Z,4.93
2023-05-10T19:06:36.193Z,5.55
2023-05-10T19:09:03.219Z,6.53
2023-05-10T19:11:32.320Z,5.75
2023-05-10T19:13:59.066Z,5.93
2023-05-10T19:16:28.795Z,7.25
2023-05-10T19:18:56.957Z,6.40
2023-05-10T19:21:23.736Z,6.90
2023-05-10T19:23:50.424Z,6.32
2023-05-10T19:26:17.223Z,6.53
2023-05-10T19:28:44.154Z,6.80
2023-05-10T19:31:10.979Z,7.00
2023-05-10T19:33:37.740Z,6.20
2023-05-10T19:36:04.433Z,5.97
2023-05-10T19:38:31.159Z,6.78
2023-05-10T19:40:58.694Z,5.82
2023-05-10T19:43:32.138Z,5.93
2023-05-10T19:46:01.169Z,6.45
2023-05-10T19:48:28.154Z,7.30
2023-05-10T19:51:00.048Z,5.63
2023-05-10T19:53:27.173Z,6.13
2023-05-10T19:55:54.462Z,5.30
2023-05-10T19:58:21.140Z,5.88
2023-05-10T20:00:47.870Z,5.43
2023-05-10T20:03:15.445Z,5.63
2023-05-10T20:05:42.049Z,5.03
2023-05-10T20:08:08.762Z,5.32
2023-05-10T20:10:35.364Z,6.15
2023-05-10T20:13:02.045Z,6.18
2023-05-10T20:15:30.026Z,5.95
2023-05-10T20:17:56.724Z,4.82
2023-05-10T20:20:23.737Z,4.95
2023-05-10T20:22:50.810Z,6.55
2023-05-10T20:25:18.367Z,5.32
2023-05-10T20:27:45.521Z,5.45
2023-05-10T20:30:12.565Z,6.10
2023-05-10T20:32:39.376Z,5.50
2023-05-10T20:35:07.256Z,6.00
2023-05-10T20:37:34.020Z,6.80
2023-05-10T20:40:00.822Z,5.35
2023-05-10T20:42:27.431Z,5.35
2023-05-10T20:44:54.157Z,5.90
2023-05-10T20:47:21.993Z,5.65
2023-05-10T20:49:48.671Z,5.72
2023-05-10T20:52:15.525Z,6.28
2023-05-10T20:54:42.194Z,5.45
2023-05-10T20:57:09.149Z,5.78
2023-05-10T20:59:35.819Z,6.32
2023-05-10T21:02:02.521Z,6.55
2023-05-10T21:04:29.359Z,5.38
2023-05-10T21:06:57.036Z,6.25
2023-05-10T21:09:23.728Z,7.15
2023-05-10T21:11:50.867Z,7.18
2023-05-10T21:14:17.680Z,7.35
2023-05-10T21:16:44.394Z,7.43
2023-05-10T21:19:11.829Z,6.78
2023-05-10T21:21:38.543Z,7.70
2023-05-10T21:24:05.481Z,7.32
2023-05-10T21:26:32.276Z,6.97
2023-05-10T21:28:59.433Z,7.13
2023-05-10T21:31:26.120Z,7.05
2023-05-10T21:33:52.818Z,6.95
2023-05-10T21:36:19.595Z,7.07
2023-05-10T21:38:46.854Z,7.32
2023-05-10T21:41:13.555Z,7.50
2023-05-10T21:43:40.422Z,6.85
2023-05-10T21:46:07.480Z,6.18
2023-05-10T21:48:34.136Z,6.50
2023-05-10T21:51:01.770Z,7.03
2023-05-10T21:53:29.044Z,7.65
2023-05-10T21:55:56.324Z,7.32
2023-05-10T21:58:23.394Z,7.40
2023-05-10T22:00:50.075Z,7.05
2023-05-10T22:03:18.074Z,7.40
2023-05-10T22:05:44.990Z,7.28
2023-05-10T22:08:11.658Z,7.97
2023-05-10T22:10:38.369Z,7.40
2023-05-10T22:13:05.061Z,7.10
2023-05-10T22:15:34.148Z,7.28
2023-05-10T22:18:02.490Z,6.80
2023-05-10T22:20:29.263Z,7.45
2023-05-10T22:22:56.163Z,8.70
2023-05-10T22:25:22.944Z,8.25
2023-05-10T22:27:49.600Z,8.85
2023-05-10T22:30:17.043Z,9.07
2023-05-10T22:32:44.144Z,8.13
2023-05-10T22:35:10.836Z,8.45
2023-05-10T22:37:37.649Z,7.30
2023-05-10T22:40:04.759Z,8.65
2023-05-10T22:42:31.445Z,7.80
2023-05-10T22:44:58.913Z,8.20
2023-05-10T22:47:25.800Z,8.10
2023-05-10T22:49:52.559Z,8.50
2023-05-10T22:52:19.209Z,8.55
2023-05-10T22:54:45.861Z,8.15
2023-05-10T22:57:12.695Z,7.03
2023-05-10T22:59:39.457Z,7.22
2023-05-10T23:02:06.185Z,6.63
2023-05-10T23:04:32.983Z,7.15
2023-05-10T23:06:59.660Z,7.47
2023-05-10T23:09:26.314Z,7.97
2023-05-10T23:11:52.902Z,7.88
2023-05-10T23:14:19.658Z,7.68
2023-05-10T23:16:46.443Z,6.57
2023-05-10T23:19:13.346Z,7.47
2023-05-10T23:21:39.969Z,7.55
2023-05-10T23:24:08.652Z,9.05
2023-05-10T23:26:35.446Z,8.90
2023-05-10T23:29:02.486Z,9.25
2023-05-10T23:31:29.199Z,8.30
2023-05-10T23:33:56.096Z,7.90
2023-05-10T23:36:22.914Z,7.47
2023-05-10T23:38:49.513Z,7.40
2023-05-10T23:41:16.134Z,8.55
2023-05-10T23:43:42.858Z,8.15
2023-05-10T23:46:14.769Z,8.18
2023-05-10T23:48:41.577Z,8.40
2023-05-10T23:51:08.408Z,7.70
2023-05-10T23:53:35.114Z,7.97
2023-05-10T23:56:01.784Z,7.30
2023-05-10T23:58:28.486Z,7.30
